Check out our new BloomSky Weather System.

Active alerts


No alerts


Thunder radar  blitzortung!


Rain radar more information rain snow radar


Visit our other weather sites:

Template documentation
and downloads

And another site



Weather Underground History page Text

Daily Summary for January 17, 2017 Units:  Metric    English   Both
« Previous Day
Next Day »
Daily Weekly Monthly Yearly Custom
  High: Low: Average:
Temperature: 22.3 °C 14.4 °C 16.6 °C
Dew Point: 21.3 °C 13.9 °C 16.2 °C
Humidity: 99 % 93 % 97 %
Wind Speed: 14.5 km/h 0 km/h 3.5 km/h
Wind Gust: 22.5 km/h - -
Wind:- - SSW
Pressure: 1019.9 hPa 1015.1 hPa -
Precipitation: 9.65 mm    
Historical Graphs
 
 
Tabular Data for January 17, 2017
Time Temperature Dew Point Pressure Wind Wind Speed Wind Gust Humidity Rainfall Rate (Hourly)
00:04 22.3 °C 21.1 °C 1015.8 hPa Calm   11.3 km/h 93 % 0 mm
00:09 22.3 °C 21.3 °C 1015.8 hPa South 1.6 km/h 9.7 km/h 94 % 0 mm
00:14 22.3 °C 21.3 °C 1015.5 hPa South 1.6 km/h 9.7 km/h 94 % 0 mm
00:19 22.3 °C 21.3 °C 1015.8 hPa SE 1.6 km/h 8 km/h 94 % 0 mm
00:24 22.3 °C 21.3 °C 1015.5 hPa SSE 1.6 km/h 8 km/h 94 % 0 mm
00:29 22.3 °C 21.3 °C 1015.5 hPa SSE 3.2 km/h 4.8 km/h 94 % 0 mm
00:34 22.2 °C 21.2 °C 1015.5 hPa South 1.6 km/h 6.4 km/h 94 % 0 mm
00:39 22.2 °C 21.2 °C 1015.5 hPa ESE 1.6 km/h 6.4 km/h 94 % 0 mm
00:44 22.2 °C 21.2 °C 1015.5 hPa SE 4.8 km/h 8 km/h 94 % 0 mm
00:49 22.2 °C 21.2 °C 1015.5 hPa Calm   8 km/h 94 % 0 mm
00:54 22.1 °C 21.1 °C 1015.5 hPa SSE 1.6 km/h 8 km/h 94 % 0 mm
00:59 22.1 °C 21.3 °C 1015.5 hPa SE 1.6 km/h 6.4 km/h 95 % 0 mm
01:04 22 °C 21.2 °C 1015.5 hPa SSW 1.6 km/h 4.8 km/h 95 % 0 mm
01:09 21.9 °C 21.1 °C 1015.5 hPa Calm   3.2 km/h 95 % 0 mm
01:15 21.9 °C 21.1 °C 1015.5 hPa Calm   3.2 km/h 95 % 0 mm
01:20 21.8 °C 21 °C 1015.5 hPa Calm   1.6 km/h 95 % 0 mm
01:25 21.8 °C 21 °C 1015.5 hPa Calm   1.6 km/h 95 % 0 mm
01:30 21.7 °C 20.9 °C 1015.5 hPa SSE 3.2 km/h 3.2 km/h 95 % 0 mm
01:35 21.7 °C 21 °C 1015.5 hPa Calm   3.2 km/h 96 % 0 mm
01:40 21.6 °C 20.9 °C 1015.5 hPa Calm   3.2 km/h 96 % 0 mm
01:45 21.6 °C 20.9 °C 1015.8 hPa Calm   3.2 km/h 96 % 0 mm
01:50 21.6 °C 20.9 °C 1015.5 hPa SSE 3.2 km/h 3.2 km/h 96 % 0 mm
01:55 21.6 °C 20.9 °C 1015.5 hPa South 3.2 km/h 6.4 km/h 96 % 0.25 mm
02:00 21.6 °C 20.9 °C 1015.5 hPa Calm   6.4 km/h 96 % 0.25 mm
02:05 21.6 °C 20.9 °C 1015.5 hPa Calm   6.4 km/h 96 % 0.25 mm
02:10 21.6 °C 21.1 °C 1015.5 hPa SSW 1.6 km/h 3.2 km/h 97 % 0.25 mm
02:15 21.6 °C 21.1 °C 1015.5 hPa SSW 1.6 km/h 4.8 km/h 97 % 0.25 mm
02:20 21.6 °C 21.1 °C 1015.5 hPa SE 1.6 km/h 4.8 km/h 97 % 0.25 mm
02:25 21.6 °C 21.1 °C 1015.5 hPa SSW 1.6 km/h 6.4 km/h 97 % 1.02 mm
02:30 21.6 °C 21.1 °C 1015.5 hPa Calm   6.4 km/h 97 % 1.02 mm
02:35 21.6 °C 21.1 °C 1015.5 hPa Calm   6.4 km/h 97 % 1.02 mm
02:40 21.5 °C 21 °C 1015.5 hPa Calm   3.2 km/h 97 % 1.27 mm
02:45 21.5 °C 21 °C 1015.5 hPa Calm   3.2 km/h 97 % 1.27 mm
02:50 21.5 °C 21 °C 1015.5 hPa Calm   3.2 km/h 97 % 1.27 mm
02:55 21.4 °C 20.9 °C 1015.5 hPa Calm   1.6 km/h 97 % 1.02 mm
03:00 21.4 °C 20.9 °C 1015.5 hPa Calm     97 % 1.02 mm
03:05 21.4 °C 20.9 °C 1015.5 hPa Calm     97 % 1.02 mm
03:10 21.4 °C 20.9 °C 1015.5 hPa Calm     97 % 1.02 mm
03:15 21.4 °C 20.9 °C 1015.5 hPa Calm     97 % 1.02 mm
03:20 21.4 °C 21.1 °C 1015.5 hPa Calm   3.2 km/h 98 % 0.76 mm
03:25 21.4 °C 21.1 °C 1015.5 hPa SSW 1.6 km/h 3.2 km/h 98 % 0.25 mm
03:30 21.4 °C 20.9 °C 1015.5 hPa Calm   3.2 km/h 97 % 0.25 mm
03:35 21.4 °C 20.9 °C 1015.5 hPa Calm   1.6 km/h 97 % 0.25 mm
03:40 21.3 °C 20.8 °C 1015.5 hPa Calm   1.6 km/h 97 % 0 mm
03:45 21.3 °C 21 °C 1015.5 hPa Calm     98 % 0 mm
03:50 21.3 °C 21 °C 1015.5 hPa Calm     98 % 0 mm
03:55 21.3 °C 21 °C 1015.5 hPa SE 1.6 km/h 1.6 km/h 98 % 0 mm
04:00 21.3 °C 21 °C 1015.1 hPa ESE 4.8 km/h 4.8 km/h 98 % 0 mm
04:05 21.4 °C 21.1 °C 1015.1 hPa SE 1.6 km/h 4.8 km/h 98 % 0 mm
04:10 21.4 °C 21.1 °C 1015.1 hPa South 3.2 km/h 4.8 km/h 98 % 0 mm
04:15 21.4 °C 21.1 °C 1015.1 hPa SE 4.8 km/h 4.8 km/h 98 % 0.25 mm
04:20 21.4 °C 21.1 °C 1015.5 hPa SSE 3.2 km/h 4.8 km/h 98 % 1.02 mm
04:25 21.5 °C 21.2 °C 1015.5 hPa SSE 1.6 km/h 6.4 km/h 98 % 1.02 mm
04:30 21.5 °C 21.2 °C 1015.5 hPa SSW 1.6 km/h 6.4 km/h 98 % 1.27 mm
04:35 21.5 °C 21.2 °C 1015.5 hPa Calm   6.4 km/h 98 % 1.27 mm
04:40 21.5 °C 21.2 °C 1015.1 hPa ESE 3.2 km/h 6.4 km/h 98 % 1.27 mm
04:45 21.5 °C 21.2 °C 1015.1 hPa SSE 3.2 km/h 6.4 km/h 98 % 1.27 mm
04:50 21.6 °C 21.3 °C 1015.1 hPa SSE 4.8 km/h 8 km/h 98 % 1.27 mm
04:55 21.5 °C 21.2 °C 1015.5 hPa SSE 3.2 km/h 8 km/h 98 % 1.27 mm
05:00 21.6 °C 21.3 °C 1015.1 hPa South 3.2 km/h 8 km/h 98 % 1.27 mm
05:05 21.5 °C 21.2 °C 1015.1 hPa South 1.6 km/h 8 km/h 98 % 1.27 mm
05:10 21.5 °C 21.2 °C 1015.1 hPa SSE 3.2 km/h 6.4 km/h 98 % 1.27 mm
05:15 21.5 °C 21.2 °C 1015.1 hPa South 4.8 km/h 6.4 km/h 98 % 1.02 mm
05:20 21.5 °C 21.2 °C 1015.5 hPa SW 3.2 km/h 6.4 km/h 98 % 0.25 mm
05:25 21.4 °C 21.1 °C 1015.5 hPa SE 1.6 km/h 6.4 km/h 98 % 0 mm
05:30 21.4 °C 21.1 °C 1015.5 hPa South 1.6 km/h 6.4 km/h 98 % 0 mm
05:35 21.5 °C 21.2 °C 1015.5 hPa South 3.2 km/h 11.3 km/h 98 % 0 mm
05:40 21.5 °C 21.2 °C 1015.5 hPa South 4.8 km/h 11.3 km/h 98 % 0 mm
05:45 21.5 °C 21.2 °C 1015.5 hPa SSW 3.2 km/h 11.3 km/h 98 % 0 mm
05:50 21.6 °C 21.3 °C 1015.5 hPa South 1.6 km/h 9.7 km/h 98 % 0 mm
05:55 21.5 °C 21.2 °C 1015.5 hPa South 6.4 km/h 9.7 km/h 98 % 0 mm
06:00 21.5 °C 21.2 °C 1015.8 hPa Calm   9.7 km/h 98 % 0 mm
06:05 20.1 °C 19.1 °C 1015.8 hPa NNW 4.8 km/h 11.3 km/h 94 % 0 mm
06:10 19.2 °C 18.4 °C 1015.8 hPa NNW 6.4 km/h 11.3 km/h 95 % 0 mm
06:15 18.4 °C 17.6 °C 1016.1 hPa WNW 11.3 km/h 14.5 km/h 95 % 0 mm
06:20 17.7 °C 17.1 °C 1016.1 hPa NW 9.7 km/h 19.3 km/h 96 % 0 mm
06:26 17.4 °C 16.8 °C 1016.1 hPa NW 6.4 km/h 19.3 km/h 96 % 0 mm
06:31 17.1 °C 16.5 °C 1016.5 hPa North 3.2 km/h 19.3 km/h 96 % 0 mm
06:36 16.9 °C 16.4 °C 1016.1 hPa WNW 3.2 km/h 17.7 km/h 97 % 0 mm
06:41 16.7 °C 16.2 °C 1016.1 hPa NW 8 km/h 19.3 km/h 97 % 0 mm
06:46 16.5 °C 16 °C 1016.5 hPa NNW 4.8 km/h 19.3 km/h 97 % 0 mm
06:51 16.3 °C 15.8 °C 1016.5 hPa North 8 km/h 19.3 km/h 97 % 0 mm
06:56 16.2 °C 15.7 °C 1016.8 hPa North 6.4 km/h 16.1 km/h 97 % 0 mm
07:01 15.9 °C 15.4 °C 1016.8 hPa NNW 8 km/h 14.5 km/h 97 % 0 mm
07:06 15.8 °C 15.3 °C 1016.8 hPa NW 4.8 km/h 16.1 km/h 97 % 0 mm
07:11 15.7 °C 15.2 °C 1017.2 hPa WNW 9.7 km/h 16.1 km/h 97 % 0 mm
07:16 15.7 °C 15.2 °C 1017.2 hPa NNW 8 km/h 16.1 km/h 97 % 0 mm
07:21 15.5 °C 15 °C 1017.2 hPa NW 11.3 km/h 14.5 km/h 97 % 0 mm
07:26 15.2 °C 14.6 °C 1017.2 hPa NW 4.8 km/h 22.5 km/h 96 % 0 mm
07:31 15.1 °C 14.5 °C 1017.2 hPa North 12.9 km/h 22.5 km/h 96 % 0.25 mm
07:36 14.9 °C 14.4 °C 1017.2 hPa NNW 4.8 km/h 22.5 km/h 97 % 0.25 mm
07:41 14.9 °C 14.4 °C 1017.2 hPa NW 11.3 km/h 20.9 km/h 97 % 0.25 mm
07:46 14.8 °C 14.3 °C 1017.2 hPa NNE 11.3 km/h 19.3 km/h 97 % 0.51 mm
07:51 14.8 °C 14.3 °C 1017.5 hPa NW 3.2 km/h 17.7 km/h 97 % 0.51 mm
07:56 14.8 °C 14.3 °C 1017.5 hPa Calm   17.7 km/h 97 % 0.51 mm
08:01 14.8 °C 14.3 °C 1017.8 hPa NNW 6.4 km/h 14.5 km/h 97 % 0.51 mm
08:06 14.7 °C 14.2 °C 1017.8 hPa NNW 3.2 km/h 12.9 km/h 97 % 0.51 mm
08:11 14.7 °C 14.2 °C 1018.2 hPa NNW 6.4 km/h 12.9 km/h 97 % 0.51 mm
08:16 14.7 °C 14.2 °C 1017.8 hPa NW 1.6 km/h 12.9 km/h 97 % 0.51 mm
08:21 14.7 °C 14.2 °C 1017.8 hPa NNE 4.8 km/h 14.5 km/h 97 % 0.51 mm
08:26 14.7 °C 14.2 °C 1017.8 hPa North 3.2 km/h 14.5 km/h 97 % 0.51 mm
08:31 14.7 °C 14.2 °C 1017.8 hPa NE 3.2 km/h 14.5 km/h 97 % 1.02 mm
08:36 14.6 °C 14.1 °C 1018.2 hPa NNW 9.7 km/h 14.5 km/h 97 % 1.27 mm
08:41 14.6 °C 14.1 °C 1017.8 hPa NW 3.2 km/h 12.9 km/h 97 % 1.27 mm
08:46 14.6 °C 14.1 °C 1017.8 hPa NNW 3.2 km/h 12.9 km/h 97 % 1.02 mm
08:51 14.6 °C 14.1 °C 1018.2 hPa NNW 4.8 km/h 12.9 km/h 97 % 1.02 mm
08:56 14.6 °C 14.1 °C 1018.2 hPa North 4.8 km/h 12.9 km/h 97 % 1.02 mm
09:01 14.5 °C 14 °C 1018.2 hPa WNW 3.2 km/h 14.5 km/h 97 % 1.02 mm
09:06 14.5 °C 14 °C 1018.5 hPa WNW 9.7 km/h 14.5 km/h 97 % 1.02 mm
09:11 14.5 °C 14 °C 1018.5 hPa North 3.2 km/h 14.5 km/h 97 % 1.02 mm
09:16 14.5 °C 14 °C 1018.8 hPa NNW 1.6 km/h 14.5 km/h 97 % 1.02 mm
09:21 14.6 °C 14.1 °C 1018.8 hPa NW 6.4 km/h 14.5 km/h 97 % 1.02 mm
09:26 14.6 °C 14.1 °C 1018.8 hPa NNW 8 km/h 16.1 km/h 97 % 1.02 mm
09:31 14.6 °C 14.1 °C 1018.8 hPa NW 4.8 km/h 16.1 km/h 97 % 0.25 mm
09:36 14.6 °C 14.1 °C 1018.8 hPa NNW 4.8 km/h 16.1 km/h 97 % 0 mm
09:42 14.6 °C 14.1 °C 1018.8 hPa North 9.7 km/h 12.9 km/h 97 % 0 mm
09:47 14.6 °C 14.1 °C 1019.2 hPa WNW 6.4 km/h 19.3 km/h 97 % 0 mm
09:52 14.6 °C 14.1 °C 1019.2 hPa NE 1.6 km/h 19.3 km/h 97 % 0.25 mm
09:57 14.7 °C 14.4 °C 1019.2 hPa NW 3.2 km/h 19.3 km/h 98 % 0.25 mm
10:02 14.7 °C 14.4 °C 1019.5 hPa NW 4.8 km/h 16.1 km/h 98 % 0.25 mm
10:07 14.7 °C 14.2 °C 1019.5 hPa WNW 1.6 km/h 11.3 km/h 97 % 0.25 mm
10:12 14.7 °C 14.2 °C 1019.5 hPa NNE 4.8 km/h 11.3 km/h 97 % 0.25 mm
10:17 14.7 °C 14.2 °C 1019.5 hPa NNW 3.2 km/h 9.7 km/h 97 % 0.25 mm
10:22 14.8 °C 14.5 °C 1019.5 hPa WNW 3.2 km/h 9.7 km/h 98 % 0.25 mm
10:27 14.8 °C 14.5 °C 1019.5 hPa NNW 4.8 km/h 9.7 km/h 98 % 0.25 mm
10:32 14.8 °C 14.3 °C 1019.5 hPa NNW 3.2 km/h 12.9 km/h 97 % 0.25 mm
10:37 14.8 °C 14.3 °C 1019.5 hPa NNE 6.4 km/h 12.9 km/h 97 % 0.25 mm
10:42 14.8 °C 14.3 °C 1019.5 hPa NW 8 km/h 12.9 km/h 97 % 0.25 mm
10:47 14.9 °C 14.4 °C 1019.5 hPa NNW 3.2 km/h 12.9 km/h 97 % 0.25 mm
10:52 14.9 °C 14.6 °C 1019.5 hPa North 6.4 km/h 12.9 km/h 98 % 0 mm
10:57 14.9 °C 14.4 °C 1019.5 hPa NW 3.2 km/h 12.9 km/h 97 % 0 mm
11:02 15 °C 14.5 °C 1019.5 hPa NW 4.8 km/h 12.9 km/h 97 % 0 mm
11:07 15 °C 14.5 °C 1019.5 hPa NW 4.8 km/h 9.7 km/h 97 % 0 mm
11:12 15 °C 14.5 °C 1019.5 hPa NNW 4.8 km/h 9.7 km/h 97 % 0 mm
11:17 15 °C 14.5 °C 1019.5 hPa NW 6.4 km/h 12.9 km/h 97 % 0 mm
11:22 15 °C 14.5 °C 1019.9 hPa NW 3.2 km/h 16.1 km/h 97 % 0 mm
11:27 14.9 °C 14.4 °C 1019.9 hPa NW 1.6 km/h 16.1 km/h 97 % 0 mm
11:32 14.9 °C 14.4 °C 1019.5 hPa NW 8 km/h 16.1 km/h 97 % 0 mm
11:37 14.9 °C 14.4 °C 1019.5 hPa NW 1.6 km/h 12.9 km/h 97 % 0 mm
11:42 14.9 °C 14.4 °C 1019.2 hPa North 3.2 km/h 12.9 km/h 97 % 0 mm
11:47 14.9 °C 14.4 °C 1019.2 hPa West 3.2 km/h 12.9 km/h 97 % 0 mm
11:52 14.9 °C 14.4 °C 1019.2 hPa WNW 8 km/h 12.9 km/h 97 % 0 mm
11:57 14.8 °C 14.3 °C 1019.2 hPa NNW 1.6 km/h 12.9 km/h 97 % 0 mm
12:02 14.9 °C 14.4 °C 1019.2 hPa North 1.6 km/h 12.9 km/h 97 % 0 mm
12:07 14.9 °C 14.4 °C 1019.2 hPa North 12.9 km/h 12.9 km/h 97 % 0 mm
12:12 14.9 °C 14.4 °C 1019.2 hPa East 3.2 km/h 12.9 km/h 97 % 0 mm
12:17 15.1 °C 14.6 °C 1018.8 hPa NNW 9.7 km/h 12.9 km/h 97 % 0 mm
12:22 15 °C 14.5 °C 1018.8 hPa WNW 6.4 km/h 12.9 km/h 97 % 0 mm
12:27 15 °C 14.4 °C 1018.8 hPa NNW 8 km/h 17.7 km/h 96 % 0 mm
12:32 15 °C 14.5 °C 1018.5 hPa NW 3.2 km/h 17.7 km/h 97 % 0 mm
12:37 15 °C 14.5 °C 1018.5 hPa NW 6.4 km/h 17.7 km/h 97 % 0 mm
12:42 14.9 °C 14.3 °C 1018.5 hPa NW 6.4 km/h 19.3 km/h 96 % 0 mm
12:47 14.9 °C 14.3 °C 1018.5 hPa WNW 8 km/h 19.3 km/h 96 % 0 mm
12:52 14.9 °C 14.4 °C 1018.2 hPa NNW 6.4 km/h 19.3 km/h 97 % 0 mm
12:57 14.8 °C 14.2 °C 1018.2 hPa NW 3.2 km/h 16.1 km/h 96 % 0 mm
13:02 14.8 °C 14.3 °C 1018.2 hPa ESE 1.6 km/h 17.7 km/h 97 % 0 mm
13:07 14.8 °C 14.3 °C 1017.8 hPa NW 1.6 km/h 17.7 km/h 97 % 0 mm
13:12 14.8 °C 14.2 °C 1017.8 hPa NW 6.4 km/h 17.7 km/h 96 % 0 mm
13:17 14.8 °C 14.3 °C 1017.8 hPa NW 6.4 km/h 17.7 km/h 97 % 0 mm
13:22 14.7 °C 14.2 °C 1017.8 hPa NW 14.5 km/h 17.7 km/h 97 % 0 mm
13:27 14.7 °C 14.2 °C 1017.8 hPa NW 9.7 km/h 17.7 km/h 97 % 0.25 mm
13:32 14.6 °C 14.1 °C 1017.8 hPa NNW 9.7 km/h 17.7 km/h 97 % 0.25 mm
13:37 14.6 °C 14.1 °C 1017.8 hPa NNW 6.4 km/h 17.7 km/h 97 % 0.25 mm
13:38 14.6 °C 14.1 °C 1017.8 hPa NW 6.4 km/h 17.7 km/h 97 % 0.25 mm
13:43 14.4 °C 13.9 °C 1017.8 hPa WNW 8 km/h 16.1 km/h 97 % 0.51 mm
13:48 14.5 °C 14 °C 1017.8 hPa NW 9.7 km/h 16.1 km/h 97 % 0.51 mm
13:53 14.4 °C 13.9 °C 1017.8 hPa NNW 6.4 km/h 16.1 km/h 97 % 0.51 mm
13:58 14.4 °C 13.9 °C 1017.8 hPa NNW 1.6 km/h 16.1 km/h 97 % 0.51 mm
14:03 14.4 °C 13.9 °C 1017.5 hPa NE 4.8 km/h 16.1 km/h 97 % 0.51 mm
14:08 14.4 °C 13.9 °C 1017.2 hPa WSW 3.2 km/h 12.9 km/h 97 % 0.51 mm
14:13 14.4 °C 14.1 °C 1017.2 hPa NNW 1.6 km/h 14.5 km/h 98 % 0.76 mm
14:18 14.6 °C 14.3 °C 1017.2 hPa North 3.2 km/h 14.5 km/h 98 % 0.76 mm
14:23 14.6 °C 14.3 °C 1017.2 hPa NNW 4.8 km/h 14.5 km/h 98 % 0.76 mm
14:28 14.6 °C 14.3 °C 1017.2 hPa NE 8 km/h 14.5 km/h 98 % 0.51 mm
14:34 14.7 °C 14.4 °C 1017.2 hPa NNW 1.6 km/h 14.5 km/h 98 % 0.51 mm
14:39 14.7 °C 14.4 °C 1017.2 hPa NW 3.2 km/h 14.5 km/h 98 % 0.51 mm
14:44 14.6 °C 14.1 °C 1017.2 hPa NNE 4.8 km/h 12.9 km/h 97 % 0.25 mm
14:49 14.7 °C 14.4 °C 1017.2 hPa NNW 1.6 km/h 11.3 km/h 98 % 0.25 mm
14:54 14.7 °C 14.4 °C 1017.2 hPa North 3.2 km/h 11.3 km/h 98 % 0.25 mm
14:59 14.7 °C 14.4 °C 1017.2 hPa WNW 4.8 km/h 14.5 km/h 98 % 0.25 mm
15:04 14.8 °C 14.5 °C 1017.2 hPa Calm   14.5 km/h 98 % 0.25 mm
15:09 14.8 °C 14.3 °C 1017.2 hPa North 6.4 km/h 14.5 km/h 97 % 0.25 mm
15:14 14.8 °C 14.3 °C 1017.2 hPa NW 4.8 km/h 11.3 km/h 97 % 0 mm
15:19 14.8 °C 14.3 °C 1017.2 hPa WNW 4.8 km/h 12.9 km/h 97 % 0 mm
15:24 14.9 °C 14.4 °C 1017.2 hPa NNW 4.8 km/h 12.9 km/h 97 % 0 mm
15:29 14.8 °C 14.3 °C 1017.2 hPa North 1.6 km/h 17.7 km/h 97 % 0 mm
15:34 14.9 °C 14.4 °C 1017.2 hPa NNW 4.8 km/h 17.7 km/h 97 % 0 mm
15:39 14.9 °C 14.4 °C 1017.2 hPa ENE 3.2 km/h 17.7 km/h 97 % 0 mm
15:44 14.9 °C 14.4 °C 1016.8 hPa North 6.4 km/h 14.5 km/h 97 % 0 mm
15:49 14.9 °C 14.3 °C 1016.8 hPa NNW 1.6 km/h 14.5 km/h 96 % 0 mm
15:54 14.9 °C 14.3 °C 1016.8 hPa SE 8 km/h 14.5 km/h 96 % 0 mm
15:59 14.9 °C 14.3 °C 1017.2 hPa NNE 3.2 km/h 14.5 km/h 96 % 0 mm
16:04 15 °C 14.4 °C 1016.8 hPa ENE 1.6 km/h 14.5 km/h 96 % 0 mm
16:09 14.9 °C 14.3 °C 1017.2 hPa North 4.8 km/h 12.9 km/h 96 % 0 mm
16:14 14.9 °C 14.3 °C 1017.2 hPa NNW 3.2 km/h 12.9 km/h 96 % 0 mm
16:19 14.9 °C 14.3 °C 1017.2 hPa NW 6.4 km/h 14.5 km/h 96 % 0 mm
16:24 14.9 °C 14.3 °C 1017.2 hPa NNW 3.2 km/h 14.5 km/h 96 % 0 mm
16:29 15 °C 14.4 °C 1017.2 hPa NNE 1.6 km/h 14.5 km/h 96 % 0 mm
16:34 15 °C 14.4 °C 1017.2 hPa WNW 1.6 km/h 12.9 km/h 96 % 0 mm
16:39 15 °C 14.4 °C 1016.8 hPa NE 6.4 km/h 12.9 km/h 96 % 0 mm
16:44 15 °C 14.4 °C 1016.8 hPa North 1.6 km/h 9.7 km/h 96 % 0 mm
16:49 15 °C 14.4 °C 1016.8 hPa NW 3.2 km/h 9.7 km/h 96 % 0 mm
16:54 14.9 °C 14.3 °C 1017.2 hPa NNE 4.8 km/h 14.5 km/h 96 % 0 mm
17:00 14.9 °C 14.3 °C 1016.8 hPa NNE 3.2 km/h 14.5 km/h 96 % 0 mm
17:05 14.8 °C 14.2 °C 1017.2 hPa NE 3.2 km/h 14.5 km/h 96 % 0 mm
17:10 14.8 °C 14.3 °C 1017.2 hPa NW 1.6 km/h 12.9 km/h 97 % 0 mm
17:15 14.8 °C 14.3 °C 1016.8 hPa ENE 3.2 km/h 11.3 km/h 97 % 0 mm
17:20 14.8 °C 14.3 °C 1017.2 hPa North 3.2 km/h 11.3 km/h 97 % 0 mm
17:25 14.8 °C 14.3 °C 1017.2 hPa WNW 1.6 km/h 11.3 km/h 97 % 0 mm
17:30 14.7 °C 14.2 °C 1017.2 hPa NNE 6.4 km/h 11.3 km/h 97 % 0 mm
17:35 14.7 °C 14.2 °C 1017.2 hPa NNW 3.2 km/h 11.3 km/h 97 % 0 mm
17:40 14.7 °C 14.2 °C 1017.2 hPa North 4.8 km/h 12.9 km/h 97 % 0 mm
17:45 14.7 °C 14.2 °C 1017.2 hPa NW 1.6 km/h 12.9 km/h 97 % 0 mm
17:50 14.6 °C 14.1 °C 1017.2 hPa NNW 4.8 km/h 12.9 km/h 97 % 0 mm
17:55 14.6 °C 14.1 °C 1017.2 hPa North 3.2 km/h 11.3 km/h 97 % 0 mm
18:00 14.6 °C 14.1 °C 1017.2 hPa NW 3.2 km/h 11.3 km/h 97 % 0 mm
18:05 14.6 °C 14.1 °C 1017.5 hPa ENE 4.8 km/h 9.7 km/h 97 % 0 mm
18:10 14.6 °C 14.1 °C 1017.5 hPa North 6.4 km/h 12.9 km/h 97 % 0 mm
18:15 14.6 °C 14.1 °C 1017.5 hPa ENE 6.4 km/h 12.9 km/h 97 % 0 mm
18:20 14.6 °C 14.3 °C 1017.5 hPa North 4.8 km/h 12.9 km/h 98 % 0 mm
18:25 14.6 °C 14.3 °C 1017.5 hPa NW 1.6 km/h 9.7 km/h 98 % 0 mm
18:30 14.6 °C 14.3 °C 1017.8 hPa NE 1.6 km/h 11.3 km/h 98 % 0 mm
18:35 14.6 °C 14.3 °C 1017.8 hPa NNW 1.6 km/h 11.3 km/h 98 % 0 mm
18:40 14.6 °C 14.3 °C 1017.5 hPa NNE 3.2 km/h 11.3 km/h 98 % 0 mm
18:45 14.6 °C 14.3 °C 1017.5 hPa NNW 3.2 km/h 9.7 km/h 98 % 0 mm
18:50 14.6 °C 14.3 °C 1017.5 hPa NW 4.8 km/h 9.7 km/h 98 % 0 mm
18:55 14.6 °C 14.3 °C 1017.5 hPa North 3.2 km/h 9.7 km/h 98 % 0 mm
19:00 14.6 °C 14.3 °C 1017.5 hPa NNW 1.6 km/h 9.7 km/h 98 % 0 mm
19:05 14.6 °C 14.3 °C 1017.5 hPa NW 3.2 km/h 9.7 km/h 98 % 0 mm
19:10 14.6 °C 14.3 °C 1017.5 hPa NE 1.6 km/h 9.7 km/h 98 % 0 mm
19:15 14.6 °C 14.3 °C 1017.5 hPa NNE 4.8 km/h 9.7 km/h 98 % 0 mm
19:20 14.6 °C 14.3 °C 1017.5 hPa NNW 1.6 km/h 9.7 km/h 98 % 0 mm
19:25 14.6 °C 14.3 °C 1017.5 hPa Calm   8 km/h 98 % 0 mm
19:30 14.6 °C 14.3 °C 1017.5 hPa NE 4.8 km/h 8 km/h 98 % 0 mm
19:35 14.6 °C 14.3 °C 1017.5 hPa NNE 4.8 km/h 8 km/h 98 % 0 mm
19:40 14.6 °C 14.3 °C 1017.8 hPa NE 1.6 km/h 8 km/h 98 % 0 mm
19:45 14.6 °C 14.3 °C 1017.5 hPa NNW 3.2 km/h 8 km/h 98 % 0 mm
19:50 14.6 °C 14.3 °C 1017.2 hPa NNE 9.7 km/h 12.9 km/h 98 % 0 mm
19:55 14.6 °C 14.3 °C 1017.2 hPa NE 4.8 km/h 12.9 km/h 98 % 0 mm
20:00 14.7 °C 14.4 °C 1017.2 hPa NE 1.6 km/h 12.9 km/h 98 % 0 mm
20:05 14.7 °C 14.4 °C 1017.2 hPa NW 1.6 km/h 9.7 km/h 98 % 0 mm
20:10 14.7 °C 14.4 °C 1017.5 hPa North 6.4 km/h 9.7 km/h 98 % 0 mm
20:15 14.7 °C 14.4 °C 1017.5 hPa Calm   9.7 km/h 98 % 0 mm
20:20 14.7 °C 14.4 °C 1017.5 hPa NNE 3.2 km/h 9.7 km/h 98 % 0 mm
20:25 14.7 °C 14.4 °C 1017.5 hPa Calm   9.7 km/h 98 % 0 mm
20:30 14.7 °C 14.4 °C 1017.5 hPa ENE 3.2 km/h 9.7 km/h 98 % 0 mm
20:35 14.7 °C 14.4 °C 1017.5 hPa North 8 km/h 9.7 km/h 98 % 0 mm
20:40 14.7 °C 14.4 °C 1017.2 hPa NNE 3.2 km/h 9.7 km/h 98 % 0 mm
20:45 14.7 °C 14.4 °C 1017.2 hPa NW 1.6 km/h 11.3 km/h 98 % 0 mm
20:50 14.8 °C 14.6 °C 1017.5 hPa NNE 1.6 km/h 11.3 km/h 99 % 0 mm
20:55 14.8 °C 14.6 °C 1017.5 hPa NE 3.2 km/h 11.3 km/h 99 % 0 mm
21:00 14.8 °C 14.6 °C 1017.5 hPa ENE 1.6 km/h 11.3 km/h 99 % 0 mm
21:05 14.8 °C 14.6 °C 1017.5 hPa Calm   9.7 km/h 99 % 0 mm
21:10 14.8 °C 14.6 °C 1017.2 hPa ENE 3.2 km/h 8 km/h 99 % 0 mm
21:15 14.8 °C 14.6 °C 1017.2 hPa NNW 4.8 km/h 12.9 km/h 99 % 0 mm
21:20 14.8 °C 14.6 °C 1017.5 hPa Calm   12.9 km/h 99 % 0 mm
21:25 14.8 °C 14.6 °C 1017.5 hPa NE 1.6 km/h 12.9 km/h 99 % 0 mm
21:30 14.8 °C 14.6 °C 1017.5 hPa Calm   8 km/h 99 % 0 mm
21:35 14.8 °C 14.6 °C 1017.2 hPa ESE 1.6 km/h 6.4 km/h 99 % 0 mm
21:41 14.9 °C 14.7 °C 1017.2 hPa Calm   8 km/h 99 % 0 mm
21:46 14.9 °C 14.7 °C 1017.2 hPa NE 1.6 km/h 8 km/h 99 % 0 mm
21:51 14.9 °C 14.7 °C 1017.2 hPa East 4.8 km/h 8 km/h 99 % 0 mm
21:56 14.9 °C 14.7 °C 1017.2 hPa NE 1.6 km/h 8 km/h 99 % 0 mm
22:01 14.9 °C 14.7 °C 1017.2 hPa ENE 1.6 km/h 9.7 km/h 99 % 0 mm
22:06 14.9 °C 14.7 °C 1017.2 hPa East 1.6 km/h 9.7 km/h 99 % 0 mm
22:11 14.9 °C 14.7 °C 1017.2 hPa NNW 1.6 km/h 11.3 km/h 99 % 0 mm
22:16 14.9 °C 14.7 °C 1017.2 hPa NNE 3.2 km/h 11.3 km/h 99 % 0 mm
22:21 15 °C 14.8 °C 1017.2 hPa Calm   11.3 km/h 99 % 0 mm
22:26 15 °C 14.8 °C 1017.5 hPa ENE 3.2 km/h 9.7 km/h 99 % 0 mm
22:31 15 °C 14.8 °C 1017.5 hPa East 1.6 km/h 8 km/h 99 % 0 mm
22:36 15.1 °C 14.9 °C 1017.5 hPa Calm   4.8 km/h 99 % 0.25 mm
22:41 15.1 °C 14.9 °C 1017.5 hPa ESE 1.6 km/h 4.8 km/h 99 % 0.51 mm
22:46 15.1 °C 14.9 °C 1017.2 hPa Calm   4.8 km/h 99 % 1.02 mm
22:51 15.1 °C 14.9 °C 1017.2 hPa East 1.6 km/h 4.8 km/h 99 % 1.27 mm
22:56 15.1 °C 14.9 °C 1017.2 hPa ENE 1.6 km/h 4.8 km/h 99 % 2.03 mm
23:01 15.1 °C 14.9 °C 1016.8 hPa WNW 1.6 km/h 8 km/h 99 % 4.32 mm
23:06 15.1 °C 14.9 °C 1017.2 hPa Calm   9.7 km/h 99 % 4.57 mm
23:11 15.1 °C 14.9 °C 1017.2 hPa ESE 3.2 km/h 9.7 km/h 99 % 4.57 mm
23:16 15.2 °C 15 °C 1017.2 hPa East 1.6 km/h 9.7 km/h 99 % 4.57 mm
23:21 15.2 °C 15 °C 1017.2 hPa NE 3.2 km/h 8 km/h 99 % 4.57 mm
23:26 15.2 °C 15 °C 1016.8 hPa Calm   8 km/h 99 % 4.57 mm
23:31 15.2 °C 15 °C 1016.8 hPa Calm   4.8 km/h 99 % 4.57 mm
23:36 15.2 °C 15 °C 1016.8 hPa ESE 3.2 km/h 6.4 km/h 99 % 4.32 mm
23:41 15.3 °C 15.1 °C 1016.8 hPa SSE 3.2 km/h 6.4 km/h 99 % 4.06 mm
23:46 15.3 °C 15.1 °C 1016.8 hPa Calm   6.4 km/h 99 % 3.56 mm
23:51 15.3 °C 15.1 °C 1016.8 hPa East 1.6 km/h 6.4 km/h 99 % 3.3 mm
23:56 15.3 °C 15.1 °C 1016.8 hPa Calm   6.4 km/h 99 % 2.54 mm
Spring, Texas: Villages of Bridgestone
Compliments of Weather Underground - 3.25 mb

Script developed by  Jim McMurry - jmcmurry@mwt.net Adapted for the template by  Wim van der Kuil - Leuven-Template.eu

You find our weather info also at:

UK Metoffice

WeatherCloud

Weather Underground

Mid-South Weather Network

AWEKAS

Citizen Weather Observer Program (CWOP)

HAMweather, WeatherForYou, PWS Weather

Equipment we use:

Weather-station
Davis Vantage Vue

Weather-program
Meteohub

Weather-server
Debian 7.9 x86 (Guest)

Provider
DreamHost

Davis Vantage Vue

Meteohub

Debian 7.9 x86 (Guest)

DreamHost